createdAt,value
2023-04-22T00:01:02.416Z,9.30
2023-04-22T00:03:29.303Z,9.20
2023-04-22T00:05:56.268Z,9.20
2023-04-22T00:08:22.844Z,9.20
2023-04-22T00:10:49.675Z,9.10
2023-04-22T00:13:16.218Z,9.10
2023-04-22T00:15:42.909Z,9.00
2023-04-22T00:18:13.673Z,9.00
2023-04-22T00:20:43.633Z,8.90
2023-04-22T00:23:11.472Z,8.90
2023-04-22T00:25:39.478Z,8.90
2023-04-22T00:28:06.641Z,8.90
2023-04-22T00:30:33.350Z,8.80
2023-04-22T00:32:59.931Z,8.80
2023-04-22T00:35:26.580Z,8.70
2023-04-22T00:37:53.695Z,8.70
2023-04-22T00:40:20.468Z,8.70
2023-04-22T00:42:50.342Z,8.70
2023-04-22T00:45:18.119Z,8.70
2023-04-22T00:47:45.894Z,8.70
2023-04-22T00:50:12.881Z,8.60
2023-04-22T00:52:39.549Z,8.50
2023-04-22T00:55:06.785Z,8.50
2023-04-22T00:57:35.552Z,8.50
2023-04-22T01:00:02.743Z,8.50
2023-04-22T01:02:29.778Z,8.50
2023-04-22T01:04:56.437Z,8.60
2023-04-22T01:07:23.782Z,8.60
2023-04-22T01:09:50.926Z,8.60
2023-04-22T01:12:17.491Z,8.50
2023-04-22T01:14:44.091Z,8.50
2023-04-22T01:17:12.251Z,8.50
2023-04-22T01:19:39.130Z,8.40
2023-04-22T01:22:08.187Z,8.40
2023-04-22T01:24:35.325Z,8.40
2023-04-22T01:27:02.202Z,8.40
2023-04-22T01:29:28.993Z,8.30
2023-04-22T01:31:56.344Z,8.20
2023-04-22T01:34:23.120Z,8.20
2023-04-22T01:36:50.761Z,8.20
2023-04-22T01:39:18.211Z,8.10
2023-04-22T01:41:44.899Z,8.10
2023-04-22T01:44:11.504Z,8.10
2023-04-22T01:46:38.123Z,8.10
2023-04-22T01:49:04.707Z,8.10
2023-04-22T01:51:31.597Z,8.10
2023-04-22T01:53:58.196Z,8.10
2023-04-22T01:56:24.769Z,8.10
2023-04-22T01:58:51.357Z,8.10
2023-04-22T02:01:18.186Z,8.20
2023-04-22T02:03:44.768Z,8.10
2023-04-22T02:06:11.430Z,8.10
2023-04-22T02:08:38.252Z,8.10
2023-04-22T02:11:05.178Z,8.10
2023-04-22T02:13:36.705Z,8.10
2023-04-22T02:16:03.628Z,8.10
2023-04-22T02:18:30.657Z,8.10
2023-04-22T02:20:57.387Z,8.10
2023-04-22T02:23:24.705Z,8.10
2023-04-22T02:25:52.212Z,8.10
2023-04-22T02:28:19.346Z,8.10
2023-04-22T02:30:46.643Z,8.00
2023-04-22T02:33:13.298Z,8.00
2023-04-22T02:35:39.952Z,8.00
2023-04-22T02:38:06.604Z,8.00
2023-04-22T02:40:33.233Z,8.00
2023-04-22T02:43:00.565Z,8.00
2023-04-22T02:45:27.177Z,7.90
2023-04-22T02:47:53.833Z,7.90
2023-04-22T02:50:20.805Z,7.90
2023-04-22T02:52:47.410Z,7.90
2023-04-22T02:55:14.406Z,7.80
2023-04-22T02:57:40.966Z,7.80
2023-04-22T03:00:08.500Z,7.80
2023-04-22T03:02:35.419Z,7.70
2023-04-22T03:05:02.632Z,7.70
2023-04-22T03:07:29.409Z,7.70
2023-04-22T03:09:56.067Z,7.70
2023-04-22T03:12:22.722Z,7.60
2023-04-22T03:14:49.321Z,7.70
2023-04-22T03:17:15.945Z,7.70
2023-04-22T03:19:42.801Z,7.60
2023-04-22T03:22:09.608Z,7.60
2023-04-22T03:24:36.149Z,7.60
2023-04-22T03:27:03.890Z,7.60
2023-04-22T03:29:30.466Z,7.60
2023-04-22T03:31:57.023Z,7.60
2023-04-22T03:34:23.588Z,7.60
2023-04-22T03:36:50.229Z,7.50
2023-04-22T03:39:16.755Z,7.50
2023-04-22T03:41:43.387Z,7.50
2023-04-22T03:44:10.501Z,7.60
2023-04-22T03:46:37.018Z,7.60
2023-04-22T03:49:04.221Z,7.60
2023-04-22T03:51:30.766Z,7.60
2023-04-22T03:53:57.281Z,7.60
2023-04-22T03:56:24.497Z,7.60
2023-04-22T03:58:51.253Z,7.60
2023-04-22T04:01:17.947Z,7.50
2023-04-22T04:03:44.742Z,7.50
2023-04-22T04:06:11.431Z,7.50
2023-04-22T04:08:38.012Z,7.50
2023-04-22T04:11:04.659Z,7.50
2023-04-22T04:13:32.311Z,7.50
2023-04-22T04:16:00.136Z,7.50
2023-04-22T04:18:27.625Z,7.50
2023-04-22T04:20:54.282Z,7.50
2023-04-22T04:23:20.786Z,7.50
2023-04-22T04:25:47.672Z,7.50
2023-04-22T04:28:14.255Z,7.50
2023-04-22T04:30:41.721Z,7.50
2023-04-22T04:33:08.395Z,7.50
2023-04-22T04:35:36.150Z,7.50
2023-04-22T04:38:02.801Z,7.60
2023-04-22T04:40:30.500Z,7.60
2023-04-22T04:43:02.331Z,7.60
2023-04-22T04:45:29.749Z,7.60
2023-04-22T04:47:56.369Z,7.60
2023-04-22T04:50:22.980Z,7.70
2023-04-22T04:52:49.906Z,7.70
2023-04-22T04:55:17.213Z,7.70
2023-04-22T04:57:47.209Z,7.80
2023-04-22T05:00:14.127Z,7.80
2023-04-22T05:02:41.347Z,7.90
2023-04-22T05:05:08.819Z,7.90
2023-04-22T05:07:35.752Z,7.90
2023-04-22T05:10:03.543Z,8.00
2023-04-22T05:12:30.244Z,8.00
2023-04-22T05:14:56.818Z,8.10
2023-04-22T05:17:23.448Z,8.10
2023-04-22T05:19:50.161Z,8.20
2023-04-22T05:22:17.864Z,8.20
2023-04-22T05:24:44.424Z,8.30
2023-04-22T05:27:11.062Z,8.30
2023-04-22T05:29:38.018Z,8.30
2023-04-22T05:32:05.063Z,8.30
2023-04-22T05:34:31.693Z,8.40
2023-04-22T05:36:58.249Z,8.60
2023-04-22T05:39:24.790Z,8.70
2023-04-22T05:41:51.387Z,8.80
2023-04-22T05:44:18.026Z,9.00
2023-04-22T05:46:44.686Z,9.20
2023-04-22T05:49:11.232Z,9.50
2023-04-22T05:51:37.938Z,9.70
2023-04-22T05:54:04.597Z,9.80
2023-04-22T05:56:31.275Z,9.80
2023-04-22T05:58:57.817Z,10.00
2023-04-22T06:01:24.793Z,10.30
2023-04-22T06:03:51.448Z,10.40
2023-04-22T06:06:18.750Z,10.80
2023-04-22T06:08:45.493Z,11.20
2023-04-22T06:11:12.056Z,11.40
2023-04-22T06:13:38.737Z,11.60
2023-04-22T06:18:38.492Z,11.90
2023-04-22T06:21:05.484Z,12.10
2023-04-22T06:23:32.092Z,12.30
2023-04-22T06:25:58.666Z,12.80
2023-04-22T06:28:25.468Z,13.50
2023-04-22T06:30:52.072Z,14.20
2023-04-22T06:33:18.602Z,14.90
2023-04-22T06:35:45.584Z,15.30
2023-04-22T06:38:12.412Z,15.90
2023-04-22T06:40:39.049Z,16.50
2023-04-22T06:43:05.624Z,16.70
2023-04-22T06:45:32.181Z,16.90
2023-04-22T06:47:58.812Z,16.90
2023-04-22T06:50:25.680Z,16.90
2023-04-22T06:52:52.233Z,17.60
2023-04-22T06:55:18.963Z,18.30
2023-04-22T06:57:45.553Z,19.00
2023-04-22T07:00:12.968Z,19.90
2023-04-22T07:02:39.585Z,20.70
2023-04-22T07:05:06.440Z,21.40
2023-04-22T07:07:33.057Z,22.10
2023-04-22T07:09:59.845Z,22.80
2023-04-22T07:12:26.665Z,22.80
2023-04-22T07:14:53.392Z,22.70
2023-04-22T07:17:22.314Z,22.50
2023-04-22T07:19:49.422Z,22.70
2023-04-22T07:22:16.024Z,22.80
2023-04-22T07:24:42.631Z,22.80
2023-04-22T07:27:09.241Z,22.90
2023-04-22T07:29:36.034Z,23.20
2023-04-22T07:32:02.744Z,23.10
2023-04-22T07:34:29.414Z,23.20
2023-04-22T07:36:56.014Z,24.30
2023-04-22T07:39:22.942Z,25.10
2023-04-22T07:41:49.604Z,25.40
2023-04-22T07:44:21.226Z,25.20
2023-04-22T07:46:48.575Z,25.20
2023-04-22T07:49:16.726Z,25.50
2023-04-22T07:51:46.275Z,25.60
2023-04-22T07:54:13.133Z,25.20
2023-04-22T07:56:39.846Z,25.20
2023-04-22T07:59:06.453Z,26.20
2023-04-22T08:01:33.311Z,27.20
2023-04-22T08:04:00.479Z,27.70
2023-04-22T08:06:28.173Z,27.50
2023-04-22T08:08:55.243Z,27.90
2023-04-22T08:11:21.924Z,28.30
2023-04-22T08:13:48.711Z,28.50
2023-04-22T08:16:15.385Z,28.40
2023-04-22T08:18:41.940Z,29.40
2023-04-22T08:21:08.512Z,30.10
2023-04-22T08:23:35.057Z,30.10
2023-04-22T08:26:01.757Z,29.70
2023-04-22T08:28:28.333Z,29.80
2023-04-22T08:30:55.061Z,30.40
2023-04-22T08:33:21.684Z,30.70
2023-04-22T08:35:48.436Z,30.30
2023-04-22T08:38:15.593Z,30.20
2023-04-22T08:40:42.371Z,31.00
2023-04-22T08:43:09.314Z,31.80
2023-04-22T08:45:39.266Z,32.20
2023-04-22T08:48:07.930Z,31.40
2023-04-22T08:50:37.014Z,31.00
2023-04-22T08:53:03.573Z,30.90
2023-04-22T08:55:30.977Z,31.40
2023-04-22T08:58:00.334Z,31.60
2023-04-22T09:00:27.278Z,31.60
2023-04-22T09:02:54.564Z,31.80
2023-04-22T09:05:24.073Z,32.50
2023-04-22T09:07:51.871Z,32.90
2023-04-22T09:10:18.571Z,32.70
2023-04-22T09:12:46.488Z,32.20
2023-04-22T09:15:13.038Z,31.40
2023-04-22T09:17:39.810Z,31.00
2023-04-22T09:20:08.634Z,30.60
2023-04-22T09:22:44.091Z,30.70
2023-04-22T09:25:25.277Z,30.60
2023-04-22T09:27:54.238Z,30.60
2023-04-22T09:30:29.392Z,30.80
2023-04-22T09:33:01.844Z,31.10
2023-04-22T09:35:30.030Z,31.40
2023-04-22T09:37:58.010Z,31.60
2023-04-22T09:40:25.540Z,32.00
2023-04-22T09:42:54.027Z,32.50
2023-04-22T09:45:32.087Z,32.70
2023-04-22T09:48:14.740Z,31.90
2023-04-22T09:50:50.519Z,28.90
2023-04-22T09:53:19.760Z,27.70
2023-04-22T09:55:50.260Z,26.80
2023-04-22T09:58:18.709Z,25.40
2023-04-22T10:00:57.008Z,24.90
2023-04-22T10:03:23.944Z,24.40
2023-04-22T10:05:50.997Z,24.10
2023-04-22T10:08:17.574Z,23.90
2023-04-22T10:10:45.147Z,23.60
2023-04-22T10:13:11.846Z,23.40
2023-04-22T10:15:44.182Z,23.00
2023-04-22T10:18:14.336Z,22.90
2023-04-22T10:20:43.094Z,22.80
2023-04-22T10:23:15.908Z,22.50
2023-04-22T10:25:42.466Z,22.30
2023-04-22T10:28:10.725Z,22.00
2023-04-22T10:30:39.616Z,21.60
2023-04-22T10:33:34.604Z,21.30
2023-04-22T10:36:14.307Z,21.30
2023-04-22T10:38:49.741Z,21.10
2023-04-22T10:41:22.227Z,21.20
2023-04-22T10:43:58.359Z,21.30
2023-04-22T10:46:40.256Z,21.40
2023-04-22T10:49:17.767Z,21.40
2023-04-22T10:51:52.290Z,21.10
2023-04-22T10:54:30.608Z,20.90
2023-04-22T10:57:05.857Z,20.80
2023-04-22T10:59:33.921Z,20.90
2023-04-22T11:02:08.044Z,20.70
2023-04-22T11:04:35.077Z,20.70
2023-04-22T11:07:22.728Z,20.60
2023-04-22T11:09:59.282Z,20.60
2023-04-22T11:12:38.299Z,20.70
2023-04-22T11:15:13.623Z,20.50
2023-04-22T11:17:43.567Z,20.50
2023-04-22T11:20:12.634Z,20.40
2023-04-22T11:22:45.523Z,20.40
2023-04-22T11:25:12.228Z,20.50
2023-04-22T11:27:40.382Z,20.50
2023-04-22T11:30:08.800Z,20.50
2023-04-22T11:32:37.138Z,20.60
2023-04-22T11:35:06.171Z,20.50
2023-04-22T11:37:41.184Z,20.40
2023-04-22T11:40:28.239Z,20.50
2023-04-22T11:42:58.309Z,20.40
2023-04-22T11:45:25.258Z,20.40
2023-04-22T11:47:52.551Z,20.30
2023-04-22T11:50:23.354Z,20.30
2023-04-22T11:52:55.901Z,20.20
2023-04-22T11:55:30.525Z,20.10
2023-04-22T11:58:09.691Z,20.10
2023-04-22T12:00:40.367Z,20.20
2023-04-22T12:03:16.718Z,20.40
2023-04-22T12:05:51.405Z,20.60
2023-04-22T12:08:22.430Z,20.70
2023-04-22T12:10:54.977Z,20.60
2023-04-22T12:13:41.787Z,20.50
2023-04-22T12:16:13.562Z,20.40
2023-04-22T12:18:54.781Z,20.30
2023-04-22T12:21:24.445Z,20.20
2023-04-22T12:23:54.018Z,20.10
2023-04-22T12:26:26.597Z,20.00
2023-04-22T12:28:59.650Z,19.90
2023-04-22T12:31:27.819Z,19.80
2023-04-22T12:33:54.911Z,19.60
2023-04-22T12:36:21.740Z,19.50
2023-04-22T12:38:49.151Z,19.50
2023-04-22T12:41:16.408Z,19.50
2023-04-22T12:43:43.088Z,19.50
2023-04-22T12:46:10.353Z,19.50
2023-04-22T12:48:37.336Z,19.50
2023-04-22T12:51:04.789Z,19.50
2023-04-22T12:53:31.482Z,19.70
2023-04-22T12:55:58.768Z,19.70
2023-04-22T12:58:26.646Z,19.70
2023-04-22T13:00:53.240Z,19.70
2023-04-22T13:03:19.917Z,19.70
2023-04-22T13:05:46.640Z,19.60
2023-04-22T13:08:13.209Z,19.50
2023-04-22T13:10:39.818Z,19.50
2023-04-22T13:13:16.890Z,19.50
2023-04-22T13:15:53.869Z,19.50
2023-04-22T13:18:22.790Z,19.40
2023-04-22T13:20:49.383Z,19.40
2023-04-22T13:23:16.881Z,19.20
2023-04-22T13:25:43.736Z,19.20
2023-04-22T13:28:11.280Z,19.10
2023-04-22T13:30:37.966Z,19.10
2023-04-22T13:33:04.543Z,19.00
2023-04-22T13:35:31.504Z,19.00
2023-04-22T13:37:58.223Z,19.10
2023-04-22T13:40:26.573Z,18.90
2023-04-22T13:42:53.696Z,18.80
2023-04-22T13:45:20.318Z,18.70
2023-04-22T13:47:46.936Z,18.50
2023-04-22T13:50:13.561Z,18.40
2023-04-22T13:52:40.133Z,18.30
2023-04-22T13:55:07.197Z,18.30
2023-04-22T13:57:33.820Z,18.30
2023-04-22T14:00:00.562Z,18.20
2023-04-22T14:02:27.305Z,18.20
2023-04-22T14:04:54.012Z,18.10
2023-04-22T14:07:20.609Z,18.10
2023-04-22T14:09:47.146Z,18.20
2023-04-22T14:12:13.857Z,18.30
2023-04-22T14:14:40.462Z,18.40
2023-04-22T14:17:07.224Z,18.40
2023-04-22T14:19:34.042Z,18.50
2023-04-22T14:22:00.606Z,18.50
2023-04-22T14:24:27.131Z,18.50
2023-04-22T14:26:54.598Z,18.50
2023-04-22T14:29:21.492Z,18.50
2023-04-22T14:31:49.666Z,18.50
2023-04-22T14:34:16.422Z,18.40
2023-04-22T14:36:43.824Z,18.40
2023-04-22T14:39:10.350Z,18.30
2023-04-22T14:41:36.939Z,18.20
2023-04-22T14:44:03.472Z,18.10
2023-04-22T14:46:30.432Z,18.00
2023-04-22T14:48:57.122Z,17.90
2023-04-22T14:51:23.760Z,17.90
2023-04-22T14:53:50.312Z,17.80
2023-04-22T14:56:17.056Z,17.80
2023-04-22T14:58:43.604Z,17.80
2023-04-22T15:01:10.326Z,17.80
2023-04-22T15:03:37.155Z,17.80
2023-04-22T15:06:04.110Z,17.70
2023-04-22T15:08:30.840Z,17.70
2023-04-22T15:10:59.456Z,17.60
2023-04-22T15:13:26.062Z,17.70
2023-04-22T15:15:52.697Z,17.70
2023-04-22T15:18:19.326Z,17.80
2023-04-22T15:20:45.901Z,17.80
2023-04-22T15:23:12.806Z,17.80
2023-04-22T15:25:39.473Z,17.80
2023-04-22T15:28:06.114Z,17.80
2023-04-22T15:30:32.703Z,17.80
2023-04-22T15:32:59.349Z,17.80
2023-04-22T15:35:26.123Z,17.80
2023-04-22T15:37:52.883Z,17.90
2023-04-22T15:40:19.613Z,17.90
2023-04-22T15:42:46.278Z,17.80
2023-04-22T15:45:12.896Z,17.70
2023-04-22T15:47:41.131Z,17.70
2023-04-22T15:50:09.914Z,17.70
2023-04-22T15:52:37.538Z,17.60
2023-04-22T15:55:05.536Z,17.50
2023-04-22T15:57:34.491Z,17.50
2023-04-22T16:00:11.921Z,17.40
2023-04-22T16:02:40.899Z,17.30
2023-04-22T16:05:07.916Z,17.30
2023-04-22T16:07:34.929Z,17.20
2023-04-22T16:10:01.876Z,17.10
2023-04-22T16:12:28.460Z,17.00
2023-04-22T16:14:55.068Z,17.00
2023-04-22T16:17:21.674Z,16.90
2023-04-22T16:19:48.739Z,16.90
2023-04-22T16:22:15.391Z,16.90
2023-04-22T16:24:43.973Z,16.80
2023-04-22T16:27:15.959Z,16.80
2023-04-22T16:29:42.708Z,16.80
2023-04-22T16:32:09.925Z,16.80
2023-04-22T16:34:36.883Z,16.70
2023-04-22T16:37:04.165Z,16.70
2023-04-22T16:39:31.117Z,16.70
2023-04-22T16:41:58.539Z,16.70
2023-04-22T16:44:25.125Z,16.60
2023-04-22T16:46:51.643Z,16.60
2023-04-22T16:49:18.257Z,16.60
2023-04-22T16:51:44.934Z,16.70
2023-04-22T16:54:11.536Z,16.70
2023-04-22T16:56:38.074Z,16.70
2023-04-22T16:59:04.715Z,16.60
2023-04-22T17:01:31.416Z,16.70
2023-04-22T17:03:58.310Z,16.70
2023-04-22T17:06:25.008Z,16.60
2023-04-22T17:08:52.489Z,16.50
2023-04-22T17:11:19.390Z,16.40
2023-04-22T17:13:45.937Z,16.40
2023-04-22T17:16:12.603Z,16.40
2023-04-22T17:18:39.237Z,16.30
2023-04-22T17:21:06.126Z,16.30
2023-04-22T17:23:32.679Z,16.30
2023-04-22T17:25:59.895Z,16.20
2023-04-22T17:28:26.581Z,16.20
2023-04-22T17:30:53.438Z,16.20
2023-04-22T17:33:20.120Z,16.30
2023-04-22T17:35:46.670Z,16.20
2023-04-22T17:38:14.062Z,16.30
2023-04-22T17:40:40.806Z,16.20
2023-04-22T17:43:07.320Z,16.20
2023-04-22T17:45:34.128Z,16.20
2023-04-22T17:48:00.783Z,16.20
2023-04-22T17:50:27.457Z,16.10
2023-04-22T17:52:54.405Z,16.10
2023-04-22T17:55:20.987Z,16.10
2023-04-22T17:57:47.548Z,16.10
2023-04-22T18:00:14.638Z,16.10
2023-04-22T18:02:42.054Z,16.00
2023-04-22T18:05:09.718Z,16.00
2023-04-22T18:07:36.586Z,16.00
2023-04-22T18:10:03.220Z,15.90
2023-04-22T18:12:30.845Z,15.90
2023-04-22T18:14:58.655Z,15.80
2023-04-22T18:17:25.264Z,15.80
2023-04-22T18:20:02.780Z,15.80
2023-04-22T18:22:32.882Z,15.70
2023-04-22T18:25:01.973Z,15.70
2023-04-22T18:27:28.894Z,15.70
2023-04-22T18:29:55.620Z,15.70
2023-04-22T18:32:22.379Z,15.70
2023-04-22T18:34:49.016Z,15.70
2023-04-22T18:37:15.612Z,15.70
2023-04-22T18:39:42.234Z,15.60
2023-04-22T18:42:08.923Z,15.60
2023-04-22T18:44:35.692Z,15.70
2023-04-22T18:47:02.246Z,15.70
2023-04-22T18:49:28.840Z,15.70
2023-04-22T18:51:57.277Z,15.60
2023-04-22T18:54:23.986Z,15.60
2023-04-22T18:56:51.263Z,15.60
2023-04-22T18:59:17.823Z,15.60
2023-04-22T19:01:44.567Z,15.60
2023-04-22T19:04:11.851Z,15.60
2023-04-22T19:06:38.489Z,15.50
2023-04-22T19:09:05.009Z,15.50
2023-04-22T19:11:31.586Z,15.50
2023-04-22T19:13:58.721Z,15.50
2023-04-22T19:16:26.522Z,15.50
2023-04-22T19:18:53.606Z,15.50
2023-04-22T19:21:20.313Z,15.40
2023-04-22T19:23:47.199Z,15.30
2023-04-22T19:26:14.035Z,15.30
2023-04-22T19:28:46.837Z,15.20
2023-04-22T19:31:14.667Z,15.20
2023-04-22T19:33:41.633Z,15.20
2023-04-22T19:36:08.227Z,15.10
2023-04-22T19:38:35.121Z,15.10
2023-04-22T19:41:02.223Z,15.10
2023-04-22T19:43:29.125Z,15.00
2023-04-22T19:45:55.758Z,15.10
2023-04-22T19:48:23.580Z,15.00
2023-04-22T19:50:50.232Z,15.00
2023-04-22T19:53:18.299Z,15.00
2023-04-22T19:55:46.447Z,15.00
2023-04-22T19:58:13.817Z,14.90
2023-04-22T20:00:40.683Z,14.90
2023-04-22T20:03:08.117Z,14.90
2023-04-22T20:05:35.481Z,14.90
2023-04-22T20:08:03.065Z,14.90
2023-04-22T20:10:30.558Z,14.90
2023-04-22T20:12:57.619Z,14.80
2023-04-22T20:15:24.335Z,14.80
2023-04-22T20:17:51.528Z,14.80
2023-04-22T20:20:18.908Z,14.80
2023-04-22T20:22:46.181Z,14.70
2023-04-22T20:25:15.361Z,14.70
2023-04-22T20:27:42.788Z,14.70
2023-04-22T20:30:10.803Z,14.70
2023-04-22T20:32:37.555Z,14.70
2023-04-22T20:35:06.399Z,14.70
2023-04-22T20:37:35.883Z,14.60
2023-04-22T20:40:05.610Z,14.60
2023-04-22T20:42:36.659Z,14.60
2023-04-22T20:45:06.671Z,14.60
2023-04-22T20:47:33.291Z,14.60
2023-04-22T20:49:59.871Z,14.60
2023-04-22T20:52:26.542Z,14.60
2023-04-22T20:54:56.394Z,14.70
2023-04-22T20:57:23.576Z,14.70
2023-04-22T20:59:50.467Z,14.70
2023-04-22T21:02:18.166Z,14.70
2023-04-22T21:04:45.336Z,14.70
2023-04-22T21:07:14.031Z,14.70
2023-04-22T21:09:41.524Z,14.70
2023-04-22T21:12:10.391Z,14.70
2023-04-22T21:14:40.947Z,14.70
2023-04-22T21:17:19.189Z,14.60
2023-04-22T21:19:49.501Z,14.60
2023-04-22T21:22:21.079Z,14.50
2023-04-22T21:24:52.056Z,14.50
2023-04-22T21:27:19.222Z,14.50
2023-04-22T21:29:49.398Z,14.50
2023-04-22T21:32:16.799Z,14.50
2023-04-22T21:34:44.178Z,14.40
2023-04-22T21:37:11.558Z,14.40
2023-04-22T21:39:38.235Z,14.40
2023-04-22T21:42:07.737Z,14.30
2023-04-22T21:44:37.137Z,14.30
2023-04-22T21:47:04.487Z,14.30
2023-04-22T21:49:31.494Z,14.20
2023-04-22T21:51:58.701Z,14.20
2023-04-22T21:54:25.402Z,14.20
2023-04-22T21:56:52.006Z,14.20
2023-04-22T21:59:18.633Z,14.10
2023-04-22T22:01:45.671Z,14.10
2023-04-22T22:04:15.418Z,14.10
2023-04-22T22:06:44.601Z,14.00
2023-04-22T22:09:12.024Z,14.00
2023-04-22T22:11:38.558Z,14.00
2023-04-22T22:14:05.224Z,14.00
2023-04-22T22:16:31.910Z,14.00
2023-04-22T22:18:58.500Z,14.00
2023-04-22T22:21:25.342Z,14.00
2023-04-22T22:23:52.198Z,14.00
2023-04-22T22:26:19.312Z,14.00
2023-04-22T22:28:46.134Z,13.90
2023-04-22T22:31:12.763Z,13.90
2023-04-22T22:33:39.304Z,13.90
2023-04-22T22:36:06.137Z,13.90
2023-04-22T22:38:32.727Z,13.90
2023-04-22T22:40:59.320Z,13.90
2023-04-22T22:43:25.861Z,13.90
2023-04-22T22:45:52.758Z,13.90
2023-04-22T22:48:19.474Z,13.90
2023-04-22T22:50:46.443Z,14.00
2023-04-22T22:53:13.042Z,13.90
2023-04-22T22:55:39.579Z,13.90
2023-04-22T22:58:06.102Z,13.90
2023-04-22T23:00:32.639Z,13.80
2023-04-22T23:02:59.572Z,13.80
2023-04-22T23:05:26.324Z,13.80
2023-04-22T23:07:52.874Z,13.80
2023-04-22T23:10:19.544Z,13.80
2023-04-22T23:12:46.235Z,13.90
2023-04-22T23:15:12.790Z,13.80
2023-04-22T23:17:39.749Z,13.80
2023-04-22T23:20:10.666Z,13.80
2023-04-22T23:22:41.542Z,13.80
2023-04-22T23:25:09.266Z,13.80
2023-04-22T23:27:36.244Z,13.70
2023-04-22T23:30:04.584Z,13.70
2023-04-22T23:32:32.888Z,13.70
2023-04-22T23:35:01.559Z,13.70
2023-04-22T23:37:29.416Z,13.80
2023-04-22T23:39:57.556Z,13.70
2023-04-22T23:42:24.123Z,13.70
2023-04-22T23:44:50.670Z,13.70
2023-04-22T23:47:17.457Z,13.70
2023-04-22T23:49:44.134Z,13.70
2023-04-22T23:52:12.690Z,13.70
2023-04-22T23:54:40.334Z,13.70
2023-04-22T23:57:07.451Z,13.70
2023-04-22T23:59:34.243Z,13.70
